This is the latest recevied weather packets stored in our database for station/object HS6TUX-4. If no packets are shown the sender has not sent any weather packets the latest 10 day(s).
| Time | Temp. | Humidity | Pressure | Rain* | Wind** | Luminosity | Snow |
|---|---|---|---|---|---|---|---|
| 1777785254 | 40.56° C | 72% | 739 hPa | - | - | 36 W/m² | - |
| 1777784326 | 41.11° C | 73% | 740 hPa | - | - | 49 W/m² | - |
| 1777783398 | 42.22° C | 74% | 741 hPa | - | - | 71 W/m² | - |
| 1777782469 | 44.44° C | 74% | 744 hPa | - | - | 97 W/m² | - |
| 1777781542 | 41.11° C | 81% | 740 hPa | - | - | 120 W/m² | - |
| 1777780614 | 40.56° C | 87% | 739 hPa | - | - | 116 W/m² | - |
| 1777779685 | 41.11° C | 87% | 740 hPa | - | - | 74 W/m² | - |
| 1777778757 | 39.44° C | 93% | 738 hPa | - | - | 48 W/m² | - |
| 1777777830 | 43.33° C | 87% | 743 hPa | - | - | 278 W/m² | - |
| 1777776902 | 42.78° C | 91% | 742 hPa | - | - | 265 W/m² | - |
| 1777775973 | 40.56° C | 99% | 739 hPa | - | - | 249 W/m² | - |
| 1777775045 | 40° C | 99% | 739 hPa | - | - | 243 W/m² | - |
| 1777774117 | 41.11° C | 99% | 740 hPa | - | - | 204 W/m² | - |
| 1777772665 | 40° C | 99% | 739 hPa | - | - | 172 W/m² | - |
| 1777771737 | 42.22° C | 99% | 741 hPa | - | - | 141 W/m² | - |
| 1777770808 | 42.22° C | 99% | 742 hPa | - | - | 123 W/m² | - |
| 1777769880 | 38.89° C | 99% | 737 hPa | - | - | 98 W/m² | - |
| 1777768951 | 37.22° C | 99% | 736 hPa | - | - | 78 W/m² | - |
| 1777768023 | 35° C | 99% | 733 hPa | - | - | 62 W/m² | - |
| 1777767094 | 32.78° C | 99% | 730 hPa | - | - | 41 W/m² | - |
| 1777766165 | 29.44° C | 99% | 727 hPa | - | - | 26 W/m² | - |
| 1777765236 | 26.67° C | 99% | 724 hPa | - | - | 9 W/m² | - |
| 1777764308 | 26.67° C | 99% | 724 hPa | - | - | 3 W/m² | - |
| 1777763380 | 26.67° C | 99% | 723 hPa | - | - | 2 W/m² | - |
| 1777762451 | 26.11° C | 99% | 723 hPa | - | - | 0 W/m² | - |
* Rain since midnight (hover to see other rain measurements)
** Current wind speed in m/s (hover to see current wind gust speed)